sensor_id;sensor_type;location;lat;lon;timestamp;P1;durP1;ratioP1;P2;durP2;ratioP2
14592;SDS011;7383;52.354;9.756;2022-12-20T00:01:22;11.70;;;10.23;;
14592;SDS011;7383;52.354;9.756;2022-12-20T00:03:50;12.38;;;10.65;;
14592;SDS011;7383;52.354;9.756;2022-12-20T00:06:17;13.70;;;11.70;;
14592;SDS011;7383;52.354;9.756;2022-12-20T00:08:44;12.18;;;10.88;;
14592;SDS011;7383;52.354;9.756;2022-12-20T00:11:10;13.52;;;11.43;;
14592;SDS011;7383;52.354;9.756;2022-12-20T00:13:36;13.68;;;11.02;;
14592;SDS011;7383;52.354;9.756;2022-12-20T00:16:04;12.55;;;10.93;;
14592;SDS011;7383;52.354;9.756;2022-12-20T00:18:31;12.13;;;10.68;;
14592;SDS011;7383;52.354;9.756;2022-12-20T00:20:59;12.65;;;11.02;;
14592;SDS011;7383;52.354;9.756;2022-12-20T00:23:25;11.68;;;10.48;;
14592;SDS011;7383;52.354;9.756;2022-12-20T00:25:58;11.65;;;10.40;;
14592;SDS011;7383;52.354;9.756;2022-12-20T00:28:24;12.07;;;10.88;;
14592;SDS011;7383;52.354;9.756;2022-12-20T00:30:52;12.00;;;10.35;;
14592;SDS011;7383;52.354;9.756;2022-12-20T00:33:18;12.15;;;10.90;;
14592;SDS011;7383;52.354;9.756;2022-12-20T00:35:44;10.70;;;9.60;;
14592;SDS011;7383;52.354;9.756;2022-12-20T00:38:12;11.38;;;10.15;;
14592;SDS011;7383;52.354;9.756;2022-12-20T00:40:38;12.10;;;10.80;;
14592;SDS011;7383;52.354;9.756;2022-12-20T00:43:05;13.30;;;11.57;;
14592;SDS011;7383;52.354;9.756;2022-12-20T00:45:31;12.75;;;10.48;;
14592;SDS011;7383;52.354;9.756;2022-12-20T00:47:58;13.00;;;11.57;;
14592;SDS011;7383;52.354;9.756;2022-12-20T00:50:24;13.25;;;10.93;;
14592;SDS011;7383;52.354;9.756;2022-12-20T00:52:50;12.85;;;10.48;;
14592;SDS011;7383;52.354;9.756;2022-12-20T00:55:18;11.40;;;10.27;;
14592;SDS011;7383;52.354;9.756;2022-12-20T00:57:44;12.40;;;10.82;;
14592;SDS011;7383;52.354;9.756;2022-12-20T01:00:11;12.15;;;10.90;;
14592;SDS011;7383;52.354;9.756;2022-12-20T01:02:37;14.43;;;10.70;;
14592;SDS011;7383;52.354;9.756;2022-12-20T01:05:04;12.82;;;10.70;;
14592;SDS011;7383;52.354;9.756;2022-12-20T01:07:31;10.77;;;9.60;;
14592;SDS011;7383;52.354;9.756;2022-12-20T01:09:58;13.50;;;11.38;;
14592;SDS011;7383;52.354;9.756;2022-12-20T01:12:25;12.27;;;10.60;;
14592;SDS011;7383;52.354;9.756;2022-12-20T01:14:52;11.73;;;10.60;;
14592;SDS011;7383;52.354;9.756;2022-12-20T01:17:18;12.07;;;10.27;;
14592;SDS011;7383;52.354;9.756;2022-12-20T01:19:44;10.70;;;9.63;;
14592;SDS011;7383;52.354;9.756;2022-12-20T01:22:11;11.05;;;9.70;;
14592;SDS011;7383;52.354;9.756;2022-12-20T01:24:37;13.00;;;10.90;;
14592;SDS011;7383;52.354;9.756;2022-12-20T01:27:03;12.07;;;10.38;;
14592;SDS011;7383;52.354;9.756;2022-12-20T01:29:31;11.48;;;9.98;;
14592;SDS011;7383;52.354;9.756;2022-12-20T01:31:57;10.45;;;9.35;;
14592;SDS011;7383;52.354;9.756;2022-12-20T01:34:24;10.52;;;9.45;;
14592;SDS011;7383;52.354;9.756;2022-12-20T01:36:50;11.02;;;9.82;;
14592;SDS011;7383;52.354;9.756;2022-12-20T01:39:17;10.88;;;9.77;;
14592;SDS011;7383;52.354;9.756;2022-12-20T01:41:44;12.02;;;10.73;;
14592;SDS011;7383;52.354;9.756;2022-12-20T01:46:57;13.15;;;10.52;;
14592;SDS011;7383;52.354;9.756;2022-12-20T01:49:25;12.40;;;11.10;;
14592;SDS011;7383;52.354;9.756;2022-12-20T01:51:54;12.32;;;10.50;;
14592;SDS011;7383;52.354;9.756;2022-12-20T01:54:22;11.10;;;9.98;;
14592;SDS011;7383;52.354;9.756;2022-12-20T01:56:51;11.50;;;9.73;;
14592;SDS011;7383;52.354;9.756;2022-12-20T01:59:18;11.80;;;10.60;;
14592;SDS011;7383;52.354;9.756;2022-12-20T02:01:45;12.25;;;10.88;;
14592;SDS011;7383;52.354;9.756;2022-12-20T02:04:12;13.95;;;10.52;;
14592;SDS011;7383;52.354;9.756;2022-12-20T02:06:39;12.30;;;9.90;;
14592;SDS011;7383;52.354;9.756;2022-12-20T02:09:05;12.40;;;11.10;;
14592;SDS011;7383;52.354;9.756;2022-12-20T02:11:45;11.65;;;10.43;;
14592;SDS011;7383;52.354;9.756;2022-12-20T02:14:17;12.13;;;10.63;;
14592;SDS011;7383;52.354;9.756;2022-12-20T02:16:44;11.55;;;10.35;;
14592;SDS011;7383;52.354;9.756;2022-12-20T02:19:24;10.63;;;9.52;;
14592;SDS011;7383;52.354;9.756;2022-12-20T02:21:58;11.55;;;10.35;;
14592;SDS011;7383;52.354;9.756;2022-12-20T02:29:58;11.35;;;10.15;;
14592;SDS011;7383;52.354;9.756;2022-12-20T02:32:27;11.98;;;10.30;;
14592;SDS011;7383;52.354;9.756;2022-12-20T02:34:56;10.77;;;9.57;;
14592;SDS011;7383;52.354;9.756;2022-12-20T02:37:22;11.50;;;10.20;;
14592;SDS011;7383;52.354;9.756;2022-12-20T02:39:48;10.25;;;9.23;;
14592;SDS011;7383;52.354;9.756;2022-12-20T02:42:15;10.45;;;9.35;;
14592;SDS011;7383;52.354;9.756;2022-12-20T02:44:45;9.57;;;8.57;;
14592;SDS011;7383;52.354;9.756;2022-12-20T02:47:32;10.52;;;9.30;;
14592;SDS011;7383;52.354;9.756;2022-12-20T02:49:59;11.15;;;9.77;;
14592;SDS011;7383;52.354;9.756;2022-12-20T02:52:26;11.52;;;10.20;;
14592;SDS011;7383;52.354;9.756;2022-12-20T02:54:55;10.10;;;8.93;;
14592;SDS011;7383;52.354;9.756;2022-12-20T02:57:21;9.73;;;8.73;;
14592;SDS011;7383;52.354;9.756;2022-12-20T02:59:53;11.20;;;9.07;;
14592;SDS011;7383;52.354;9.756;2022-12-20T03:02:21;11.10;;;8.80;;
14592;SDS011;7383;52.354;9.756;2022-12-20T03:04:49;9.73;;;8.82;;
14592;SDS011;7383;52.354;9.756;2022-12-20T03:07:15;10.20;;;9.20;;
14592;SDS011;7383;52.354;9.756;2022-12-20T03:09:42;9.85;;;8.85;;
14592;SDS011;7383;52.354;9.756;2022-12-20T03:12:09;10.57;;;9.50;;
14592;SDS011;7383;52.354;9.756;2022-12-20T03:14:36;9.50;;;8.50;;
14592;SDS011;7383;52.354;9.756;2022-12-20T03:17:03;8.57;;;7.78;;
14592;SDS011;7383;52.354;9.756;2022-12-20T03:19:29;9.70;;;8.68;;
14592;SDS011;7383;52.354;9.756;2022-12-20T03:21:57;10.52;;;9.48;;
14592;SDS011;7383;52.354;9.756;2022-12-20T03:24:24;10.23;;;9.23;;
14592;SDS011;7383;52.354;9.756;2022-12-20T03:26:51;9.57;;;8.68;;
14592;SDS011;7383;52.354;9.756;2022-12-20T03:29:17;9.73;;;8.80;;
14592;SDS011;7383;52.354;9.756;2022-12-20T03:31:43;9.75;;;8.75;;
14592;SDS011;7383;52.354;9.756;2022-12-20T03:34:10;10.13;;;8.93;;
14592;SDS011;7383;52.354;9.756;2022-12-20T03:36:36;9.32;;;8.43;;
14592;SDS011;7383;52.354;9.756;2022-12-20T03:39:04;12.25;;;9.43;;
14592;SDS011;7383;52.354;9.756;2022-12-20T03:41:30;9.93;;;8.90;;
14592;SDS011;7383;52.354;9.756;2022-12-20T03:43:56;9.35;;;8.43;;
14592;SDS011;7383;52.354;9.756;2022-12-20T03:46:23;10.77;;;8.57;;
14592;SDS011;7383;52.354;9.756;2022-12-20T03:48:49;9.23;;;8.10;;
14592;SDS011;7383;52.354;9.756;2022-12-20T03:51:16;9.88;;;8.88;;
14592;SDS011;7383;52.354;9.756;2022-12-20T03:53:42;10.52;;;9.40;;
14592;SDS011;7383;52.354;9.756;2022-12-20T03:56:09;9.70;;;8.70;;
14592;SDS011;7383;52.354;9.756;2022-12-20T03:58:36;10.18;;;9.07;;
14592;SDS011;7383;52.354;9.756;2022-12-20T04:01:14;9.88;;;8.65;;
14592;SDS011;7383;52.354;9.756;2022-12-20T04:03:41;9.30;;;8.38;;
14592;SDS011;7383;52.354;9.756;2022-12-20T04:06:07;10.63;;;8.98;;
14592;SDS011;7383;52.354;9.756;2022-12-20T04:08:34;9.80;;;8.80;;
14592;SDS011;7383;52.354;9.756;2022-12-20T04:11:00;10.43;;;9.38;;
14592;SDS011;7383;52.354;9.756;2022-12-20T04:13:43;9.88;;;8.82;;
14592;SDS011;7383;52.354;9.756;2022-12-20T04:16:09;9.85;;;8.82;;
14592;SDS011;7383;52.354;9.756;2022-12-20T04:18:39;10.73;;;9.15;;
14592;SDS011;7383;52.354;9.756;2022-12-20T04:21:05;9.02;;;7.78;;
14592;SDS011;7383;52.354;9.756;2022-12-20T04:23:32;9.27;;;8.13;;
14592;SDS011;7383;52.354;9.756;2022-12-20T04:25:58;9.27;;;8.27;;
14592;SDS011;7383;52.354;9.756;2022-12-20T04:28:25;9.13;;;8.23;;
14592;SDS011;7383;52.354;9.756;2022-12-20T04:30:52;9.65;;;8.65;;
14592;SDS011;7383;52.354;9.756;2022-12-20T04:33:19;9.90;;;8.90;;
14592;SDS011;7383;52.354;9.756;2022-12-20T04:35:45;9.80;;;8.80;;
14592;SDS011;7383;52.354;9.756;2022-12-20T04:38:11;9.90;;;8.73;;
14592;SDS011;7383;52.354;9.756;2022-12-20T04:40:38;9.05;;;8.00;;
14592;SDS011;7383;52.354;9.756;2022-12-20T04:43:04;9.02;;;8.00;;
14592;SDS011;7383;52.354;9.756;2022-12-20T04:45:31;8.65;;;7.72;;
14592;SDS011;7383;52.354;9.756;2022-12-20T04:48:00;7.60;;;6.90;;
14592;SDS011;7383;52.354;9.756;2022-12-20T04:50:26;9.13;;;7.95;;
14592;SDS011;7383;52.354;9.756;2022-12-20T04:52:52;9.23;;;8.30;;
14592;SDS011;7383;52.354;9.756;2022-12-20T04:55:51;9.73;;;8.73;;
14592;SDS011;7383;52.354;9.756;2022-12-20T04:58:17;9.35;;;8.20;;
14592;SDS011;7383;52.354;9.756;2022-12-20T05:00:43;11.18;;;9.23;;
14592;SDS011;7383;52.354;9.756;2022-12-20T05:03:11;11.10;;;9.45;;
14592;SDS011;7383;52.354;9.756;2022-12-20T05:05:37;9.52;;;8.63;;
14592;SDS011;7383;52.354;9.756;2022-12-20T05:08:04;10.48;;;9.48;;
14592;SDS011;7383;52.354;9.756;2022-12-20T05:10:30;10.10;;;9.07;;
14592;SDS011;7383;52.354;9.756;2022-12-20T05:12:57;10.43;;;9.20;;
14592;SDS011;7383;52.354;9.756;2022-12-20T05:15:23;10.65;;;9.55;;
14592;SDS011;7383;52.354;9.756;2022-12-20T05:17:49;10.20;;;9.20;;
14592;SDS011;7383;52.354;9.756;2022-12-20T05:20:17;9.20;;;8.40;;
14592;SDS011;7383;52.354;9.756;2022-12-20T05:22:44;10.93;;;9.82;;
14592;SDS011;7383;52.354;9.756;2022-12-20T05:25:28;9.77;;;8.85;;
14592;SDS011;7383;52.354;9.756;2022-12-20T05:28:11;10.30;;;8.70;;
14592;SDS011;7383;52.354;9.756;2022-12-20T05:30:38;10.18;;;9.18;;
14592;SDS011;7383;52.354;9.756;2022-12-20T05:33:05;10.43;;;9.43;;
14592;SDS011;7383;52.354;9.756;2022-12-20T05:35:32;9.27;;;8.38;;
14592;SDS011;7383;52.354;9.756;2022-12-20T05:37:59;10.18;;;9.07;;
14592;SDS011;7383;52.354;9.756;2022-12-20T05:40:26;9.80;;;8.85;;
14592;SDS011;7383;52.354;9.756;2022-12-20T05:42:53;10.98;;;9.88;;
14592;SDS011;7383;52.354;9.756;2022-12-20T05:45:19;9.95;;;8.52;;
14592;SDS011;7383;52.354;9.756;2022-12-20T05:47:46;12.02;;;9.98;;
14592;SDS011;7383;52.354;9.756;2022-12-20T05:50:12;10.48;;;9.18;;
14592;SDS011;7383;52.354;9.756;2022-12-20T05:52:42;8.85;;;7.95;;
14592;SDS011;7383;52.354;9.756;2022-12-20T05:55:09;9.13;;;8.23;;
14592;SDS011;7383;52.354;9.756;2022-12-20T05:57:35;9.80;;;8.80;;
14592;SDS011;7383;52.354;9.756;2022-12-20T06:00:02;9.80;;;8.80;;
14592;SDS011;7383;52.354;9.756;2022-12-20T06:02:28;10.00;;;9.00;;
14592;SDS011;7383;52.354;9.756;2022-12-20T06:04:55;9.95;;;8.95;;
14592;SDS011;7383;52.354;9.756;2022-12-20T06:07:22;9.27;;;8.38;;
14592;SDS011;7383;52.354;9.756;2022-12-20T06:09:50;9.45;;;8.55;;
14592;SDS011;7383;52.354;9.756;2022-12-20T06:12:16;10.55;;;9.20;;
14592;SDS011;7383;52.354;9.756;2022-12-20T06:14:42;9.48;;;8.57;;
14592;SDS011;7383;52.354;9.756;2022-12-20T06:17:09;9.52;;;8.63;;
14592;SDS011;7383;52.354;9.756;2022-12-20T06:19:36;10.02;;;9.02;;
14592;SDS011;7383;52.354;9.756;2022-12-20T06:22:04;10.85;;;9.75;;
14592;SDS011;7383;52.354;9.756;2022-12-20T06:24:30;10.07;;;9.07;;
14592;SDS011;7383;52.354;9.756;2022-12-20T06:27:04;10.20;;;8.75;;
14592;SDS011;7383;52.354;9.756;2022-12-20T06:29:35;10.07;;;9.07;;
14592;SDS011;7383;52.354;9.756;2022-12-20T06:32:21;10.23;;;9.23;;
14592;SDS011;7383;52.354;9.756;2022-12-20T06:47:15;9.52;;;8.63;;
14592;SDS011;7383;52.354;9.756;2022-12-20T06:50:25;10.73;;;9.63;;
14592;SDS011;7383;52.354;9.756;2022-12-20T06:55:40;10.85;;;9.70;;
14592;SDS011;7383;52.354;9.756;2022-12-20T06:58:19;10.90;;;9.80;;
14592;SDS011;7383;52.354;9.756;2022-12-20T07:00:48;11.15;;;10.00;;
14592;SDS011;7383;52.354;9.756;2022-12-20T07:03:28;11.48;;;10.48;;
14592;SDS011;7383;52.354;9.756;2022-12-20T07:05:55;11.60;;;10.40;;
14592;SDS011;7383;52.354;9.756;2022-12-20T07:08:36;11.43;;;10.23;;
14592;SDS011;7383;52.354;9.756;2022-12-20T07:11:05;11.40;;;9.35;;
14592;SDS011;7383;52.354;9.756;2022-12-20T07:13:32;11.52;;;9.90;;
14592;SDS011;7383;52.354;9.756;2022-12-20T07:15:59;10.80;;;9.80;;
14592;SDS011;7383;52.354;9.756;2022-12-20T07:18:27;10.35;;;9.27;;
14592;SDS011;7383;52.354;9.756;2022-12-20T07:20:57;10.25;;;9.10;;
14592;SDS011;7383;52.354;9.756;2022-12-20T07:23:27;11.35;;;10.02;;
14592;SDS011;7383;52.354;9.756;2022-12-20T07:25:54;10.23;;;9.23;;
14592;SDS011;7383;52.354;9.756;2022-12-20T07:28:26;11.27;;;9.52;;
14592;SDS011;7383;52.354;9.756;2022-12-20T07:30:53;10.20;;;9.27;;
14592;SDS011;7383;52.354;9.756;2022-12-20T07:33:21;10.95;;;9.73;;
14592;SDS011;7383;52.354;9.756;2022-12-20T07:35:58;11.50;;;10.02;;
14592;SDS011;7383;52.354;9.756;2022-12-20T07:38:30;10.50;;;9.48;;
14592;SDS011;7383;52.354;9.756;2022-12-20T07:41:07;10.27;;;9.20;;
14592;SDS011;7383;52.354;9.756;2022-12-20T07:43:34;11.85;;;10.10;;
14592;SDS011;7383;52.354;9.756;2022-12-20T07:46:01;12.43;;;9.98;;
14592;SDS011;7383;52.354;9.756;2022-12-20T07:48:28;10.00;;;9.00;;
14592;SDS011;7383;52.354;9.756;2022-12-20T07:50:58;10.98;;;9.88;;
14592;SDS011;7383;52.354;9.756;2022-12-20T07:53:26;11.05;;;9.77;;
14592;SDS011;7383;52.354;9.756;2022-12-20T07:55:53;10.75;;;9.65;;
14592;SDS011;7383;52.354;9.756;2022-12-20T07:58:20;9.73;;;8.73;;
14592;SDS011;7383;52.354;9.756;2022-12-20T08:00:47;10.40;;;9.40;;
14592;SDS011;7383;52.354;9.756;2022-12-20T08:03:14;10.25;;;9.25;;
14592;SDS011;7383;52.354;9.756;2022-12-20T08:05:43;9.48;;;8.57;;
14592;SDS011;7383;52.354;9.756;2022-12-20T08:08:13;9.32;;;8.48;;
14592;SDS011;7383;52.354;9.756;2022-12-20T08:10:40;9.48;;;8.57;;
14592;SDS011;7383;52.354;9.756;2022-12-20T08:13:06;9.85;;;8.95;;
14592;SDS011;7383;52.354;9.756;2022-12-20T08:15:33;9.63;;;8.73;;
14592;SDS011;7383;52.354;9.756;2022-12-20T08:18:02;9.45;;;8.48;;
14592;SDS011;7383;52.354;9.756;2022-12-20T08:20:30;9.52;;;8.40;;
14592;SDS011;7383;52.354;9.756;2022-12-20T08:22:58;8.25;;;7.40;;
14592;SDS011;7383;52.354;9.756;2022-12-20T08:25:26;10.00;;;8.65;;
14592;SDS011;7383;52.354;9.756;2022-12-20T08:27:53;8.43;;;7.63;;
14592;SDS011;7383;52.354;9.756;2022-12-20T08:30:19;9.63;;;8.27;;
14592;SDS011;7383;52.354;9.756;2022-12-20T08:32:49;8.40;;;7.35;;
14592;SDS011;7383;52.354;9.756;2022-12-20T08:35:16;8.88;;;8.00;;
14592;SDS011;7383;52.354;9.756;2022-12-20T08:37:59;9.68;;;8.88;;
14592;SDS011;7383;52.354;9.756;2022-12-20T08:40:27;8.77;;;7.97;;
14592;SDS011;7383;52.354;9.756;2022-12-20T08:42:53;9.88;;;8.25;;
14592;SDS011;7383;52.354;9.756;2022-12-20T08:45:20;8.20;;;7.40;;
14592;SDS011;7383;52.354;9.756;2022-12-20T08:47:46;9.20;;;8.27;;
14592;SDS011;7383;52.354;9.756;2022-12-20T08:50:12;9.50;;;8.70;;
14592;SDS011;7383;52.354;9.756;2022-12-20T08:52:39;9.60;;;8.70;;
14592;SDS011;7383;52.354;9.756;2022-12-20T08:55:05;8.63;;;7.82;;
14592;SDS011;7383;52.354;9.756;2022-12-20T08:57:33;8.88;;;7.97;;
14592;SDS011;7383;52.354;9.756;2022-12-20T09:00:00;8.90;;;7.78;;
14592;SDS011;7383;52.354;9.756;2022-12-20T09:02:26;8.63;;;7.82;;
14592;SDS011;7383;52.354;9.756;2022-12-20T09:04:53;8.43;;;7.60;;
14592;SDS011;7383;52.354;9.756;2022-12-20T09:07:20;9.02;;;8.13;;
14592;SDS011;7383;52.354;9.756;2022-12-20T09:09:47;9.27;;;8.38;;
14592;SDS011;7383;52.354;9.756;2022-12-20T09:12:13;8.95;;;8.05;;
14592;SDS011;7383;52.354;9.756;2022-12-20T09:14:41;8.50;;;7.70;;
14592;SDS011;7383;52.354;9.756;2022-12-20T09:17:07;8.50;;;7.70;;
14592;SDS011;7383;52.354;9.756;2022-12-20T09:19:34;8.43;;;7.63;;
14592;SDS011;7383;52.354;9.756;2022-12-20T09:22:00;7.32;;;6.68;;
14592;SDS011;7383;52.354;9.756;2022-12-20T09:24:26;7.60;;;6.90;;
14592;SDS011;7383;52.354;9.756;2022-12-20T09:26:53;7.55;;;6.75;;
14592;SDS011;7383;52.354;9.756;2022-12-20T09:29:21;7.80;;;7.00;;
14592;SDS011;7383;52.354;9.756;2022-12-20T09:31:49;8.20;;;7.38;;
14592;SDS011;7383;52.354;9.756;2022-12-20T09:34:15;7.75;;;7.00;;
14592;SDS011;7383;52.354;9.756;2022-12-20T09:36:42;7.97;;;7.15;;
14592;SDS011;7383;52.354;9.756;2022-12-20T09:39:09;6.65;;;6.05;;
14592;SDS011;7383;52.354;9.756;2022-12-20T09:41:36;8.50;;;7.70;;
14592;SDS011;7383;52.354;9.756;2022-12-20T09:44:04;7.78;;;7.05;;
14592;SDS011;7383;52.354;9.756;2022-12-20T09:46:31;7.90;;;7.07;;
14592;SDS011;7383;52.354;9.756;2022-12-20T09:48:59;7.35;;;6.65;;
14592;SDS011;7383;52.354;9.756;2022-12-20T09:54:10;7.90;;;6.70;;
14592;SDS011;7383;52.354;9.756;2022-12-20T09:56:45;7.22;;;6.63;;
14592;SDS011;7383;52.354;9.756;2022-12-20T09:59:13;7.05;;;6.45;;
14592;SDS011;7383;52.354;9.756;2022-12-20T10:01:42;6.53;;;5.93;;
14592;SDS011;7383;52.354;9.756;2022-12-20T10:04:18;6.35;;;5.75;;
14592;SDS011;7383;52.354;9.756;2022-12-20T10:06:47;5.95;;;5.43;;
14592;SDS011;7383;52.354;9.756;2022-12-20T10:09:20;5.75;;;5.30;;
14592;SDS011;7383;52.354;9.756;2022-12-20T10:11:56;5.80;;;5.28;;
14592;SDS011;7383;52.354;9.756;2022-12-20T10:17:25;5.80;;;5.30;;
14592;SDS011;7383;52.354;9.756;2022-12-20T10:20:02;5.28;;;4.88;;
14592;SDS011;7383;52.354;9.756;2022-12-20T10:22:34;5.30;;;4.80;;
14592;SDS011;7383;52.354;9.756;2022-12-20T10:25:11;5.82;;;5.32;;
14592;SDS011;7383;52.354;9.756;2022-12-20T10:27:39;5.40;;;4.90;;
14592;SDS011;7383;52.354;9.756;2022-12-20T10:30:09;5.30;;;4.80;;
14592;SDS011;7383;52.354;9.756;2022-12-20T10:32:36;4.70;;;4.30;;
14592;SDS011;7383;52.354;9.756;2022-12-20T10:35:15;5.18;;;4.68;;
14592;SDS011;7383;52.354;9.756;2022-12-20T10:37:55;5.15;;;4.65;;
14592;SDS011;7383;52.354;9.756;2022-12-20T10:40:24;4.82;;;4.43;;
14592;SDS011;7383;52.354;9.756;2022-12-20T10:42:51;5.30;;;4.90;;
14592;SDS011;7383;52.354;9.756;2022-12-20T10:45:23;4.88;;;4.47;;
14592;SDS011;7383;52.354;9.756;2022-12-20T10:47:56;5.55;;;5.05;;
14592;SDS011;7383;52.354;9.756;2022-12-20T10:50:24;5.20;;;4.70;;
14592;SDS011;7383;52.354;9.756;2022-12-20T10:53:02;5.00;;;4.60;;
14592;SDS011;7383;52.354;9.756;2022-12-20T10:55:31;5.03;;;4.63;;
14592;SDS011;7383;52.354;9.756;2022-12-20T10:58:00;5.05;;;4.55;;
14592;SDS011;7383;52.354;9.756;2022-12-20T11:00:27;4.60;;;4.20;;
14592;SDS011;7383;52.354;9.756;2022-12-20T11:03:01;4.45;;;4.10;;
14592;SDS011;7383;52.354;9.756;2022-12-20T11:05:32;5.22;;;4.72;;
14592;SDS011;7383;52.354;9.756;2022-12-20T11:07:59;4.45;;;4.05;;
14592;SDS011;7383;52.354;9.756;2022-12-20T11:10:31;4.95;;;4.55;;
14592;SDS011;7383;52.354;9.756;2022-12-20T11:12:59;5.18;;;4.75;;
14592;SDS011;7383;52.354;9.756;2022-12-20T11:15:26;4.70;;;4.22;;
14592;SDS011;7383;52.354;9.756;2022-12-20T11:17:54;4.57;;;4.18;;
14592;SDS011;7383;52.354;9.756;2022-12-20T11:20:26;5.50;;;5.00;;
14592;SDS011;7383;52.354;9.756;2022-12-20T11:23:00;5.03;;;4.63;;
14592;SDS011;7383;52.354;9.756;2022-12-20T11:25:31;4.78;;;4.40;;
14592;SDS011;7383;52.354;9.756;2022-12-20T11:28:03;4.53;;;4.13;;
14592;SDS011;7383;52.354;9.756;2022-12-20T11:30:37;4.20;;;3.90;;
14592;SDS011;7383;52.354;9.756;2022-12-20T11:33:10;4.75;;;4.30;;
14592;SDS011;7383;52.354;9.756;2022-12-20T11:35:42;3.92;;;3.63;;
14592;SDS011;7383;52.354;9.756;2022-12-20T11:38:16;4.72;;;4.00;;
14592;SDS011;7383;52.354;9.756;2022-12-20T11:40:43;5.13;;;4.63;;
14592;SDS011;7383;52.354;9.756;2022-12-20T11:43:17;4.28;;;3.88;;
14592;SDS011;7383;52.354;9.756;2022-12-20T11:45:52;3.90;;;3.60;;
14592;SDS011;7383;52.354;9.756;2022-12-20T11:51:07;4.45;;;4.05;;
14592;SDS011;7383;52.354;9.756;2022-12-20T11:53:40;3.92;;;3.63;;
14592;SDS011;7383;52.354;9.756;2022-12-20T11:56:10;4.35;;;4.05;;
14592;SDS011;7383;52.354;9.756;2022-12-20T11:58:42;4.20;;;3.78;;
14592;SDS011;7383;52.354;9.756;2022-12-20T12:01:10;3.83;;;3.53;;
14592;SDS011;7383;52.354;9.756;2022-12-20T12:03:38;4.00;;;3.70;;
14592;SDS011;7383;52.354;9.756;2022-12-20T12:06:07;4.35;;;3.97;;
14592;SDS011;7383;52.354;9.756;2022-12-20T12:08:40;4.15;;;3.85;;
14592;SDS011;7383;52.354;9.756;2022-12-20T12:11:11;3.63;;;3.40;;
14592;SDS011;7383;52.354;9.756;2022-12-20T12:13:40;3.97;;;3.60;;
14592;SDS011;7383;52.354;9.756;2022-12-20T12:16:08;4.13;;;3.70;;
14592;SDS011;7383;52.354;9.756;2022-12-20T12:18:36;4.13;;;3.83;;
14592;SDS011;7383;52.354;9.756;2022-12-20T12:21:05;3.80;;;3.50;;
14592;SDS011;7383;52.354;9.756;2022-12-20T12:23:35;3.97;;;3.67;;
14592;SDS011;7383;52.354;9.756;2022-12-20T12:26:08;3.92;;;3.55;;
14592;SDS011;7383;52.354;9.756;2022-12-20T12:28:35;3.90;;;3.60;;
14592;SDS011;7383;52.354;9.756;2022-12-20T12:31:02;3.80;;;3.50;;
14592;SDS011;7383;52.354;9.756;2022-12-20T12:33:31;3.42;;;3.22;;
14592;SDS011;7383;52.354;9.756;2022-12-20T12:38:49;3.40;;;3.20;;
14592;SDS011;7383;52.354;9.756;2022-12-20T12:41:28;3.30;;;3.00;;
14592;SDS011;7383;52.354;9.756;2022-12-20T12:43:57;3.35;;;3.13;;
14592;SDS011;7383;52.354;9.756;2022-12-20T12:46:26;3.60;;;3.30;;
14592;SDS011;7383;52.354;9.756;2022-12-20T12:48:55;4.18;;;3.35;;
14592;SDS011;7383;52.354;9.756;2022-12-20T12:51:23;3.72;;;3.30;;
14592;SDS011;7383;52.354;9.756;2022-12-20T12:53:52;3.90;;;3.60;;
14592;SDS011;7383;52.354;9.756;2022-12-20T12:56:39;3.25;;;3.05;;
14592;SDS011;7383;52.354;9.756;2022-12-20T12:59:07;3.10;;;2.85;;
14592;SDS011;7383;52.354;9.756;2022-12-20T13:01:46;3.40;;;3.20;;
14592;SDS011;7383;52.354;9.756;2022-12-20T13:04:21;3.33;;;3.03;;
14592;SDS011;7383;52.354;9.756;2022-12-20T13:09:37;3.03;;;2.83;;
14592;SDS011;7383;52.354;9.756;2022-12-20T13:14:50;3.42;;;3.20;;
14592;SDS011;7383;52.354;9.756;2022-12-20T13:20:14;4.38;;;4.03;;
14592;SDS011;7383;52.354;9.756;2022-12-20T13:22:41;4.32;;;3.83;;
14592;SDS011;7383;52.354;9.756;2022-12-20T13:25:27;3.53;;;3.22;;
14592;SDS011;7383;52.354;9.756;2022-12-20T13:28:02;3.42;;;3.20;;
14592;SDS011;7383;52.354;9.756;2022-12-20T13:30:47;3.92;;;3.58;;
14592;SDS011;7383;52.354;9.756;2022-12-20T13:33:16;3.25;;;2.95;;
14592;SDS011;7383;52.354;9.756;2022-12-20T13:35:47;3.42;;;3.13;;
14592;SDS011;7383;52.354;9.756;2022-12-20T13:41:00;3.20;;;3.00;;
14592;SDS011;7383;52.354;9.756;2022-12-20T13:43:27;3.70;;;3.40;;
14592;SDS011;7383;52.354;9.756;2022-12-20T13:45:56;3.15;;;2.95;;
14592;SDS011;7383;52.354;9.756;2022-12-20T13:48:24;3.03;;;2.83;;
14592;SDS011;7383;52.354;9.756;2022-12-20T13:50:51;3.15;;;2.95;;
14592;SDS011;7383;52.354;9.756;2022-12-20T13:53:18;3.25;;;2.83;;
14592;SDS011;7383;52.354;9.756;2022-12-20T13:55:45;3.13;;;2.92;;
14592;SDS011;7383;52.354;9.756;2022-12-20T13:58:13;4.13;;;3.10;;
14592;SDS011;7383;52.354;9.756;2022-12-20T14:00:41;3.00;;;2.67;;
14592;SDS011;7383;52.354;9.756;2022-12-20T14:03:14;3.05;;;2.85;;
14592;SDS011;7383;52.354;9.756;2022-12-20T14:05:42;3.17;;;2.85;;
14592;SDS011;7383;52.354;9.756;2022-12-20T14:08:09;3.50;;;3.20;;
14592;SDS011;7383;52.354;9.756;2022-12-20T14:10:38;3.20;;;2.90;;
14592;SDS011;7383;52.354;9.756;2022-12-20T14:13:12;2.90;;;2.70;;
14592;SDS011;7383;52.354;9.756;2022-12-20T14:15:42;3.40;;;3.13;;
14592;SDS011;7383;52.354;9.756;2022-12-20T14:18:14;3.65;;;3.35;;
14592;SDS011;7383;52.354;9.756;2022-12-20T14:20:41;3.00;;;2.80;;
14592;SDS011;7383;52.354;9.756;2022-12-20T14:23:09;3.20;;;3.00;;
14592;SDS011;7383;52.354;9.756;2022-12-20T14:25:37;3.30;;;3.10;;
14592;SDS011;7383;52.354;9.756;2022-12-20T14:28:08;2.88;;;2.67;;
14592;SDS011;7383;52.354;9.756;2022-12-20T14:30:40;3.15;;;2.90;;
14592;SDS011;7383;52.354;9.756;2022-12-20T14:33:15;2.67;;;2.47;;
14592;SDS011;7383;52.354;9.756;2022-12-20T14:35:44;3.30;;;3.00;;
14592;SDS011;7383;52.354;9.756;2022-12-20T14:38:18;3.05;;;2.85;;
14592;SDS011;7383;52.354;9.756;2022-12-20T14:40:45;3.33;;;3.03;;
14592;SDS011;7383;52.354;9.756;2022-12-20T14:43:13;3.53;;;2.88;;
14592;SDS011;7383;52.354;9.756;2022-12-20T14:45:39;3.20;;;3.00;;
14592;SDS011;7383;52.354;9.756;2022-12-20T14:48:05;3.83;;;3.17;;
14592;SDS011;7383;52.354;9.756;2022-12-20T14:50:44;3.15;;;2.80;;
14592;SDS011;7383;52.354;9.756;2022-12-20T14:53:16;3.10;;;2.90;;
14592;SDS011;7383;52.354;9.756;2022-12-20T14:55:44;3.15;;;2.90;;
14592;SDS011;7383;52.354;9.756;2022-12-20T14:58:21;2.50;;;2.40;;
14592;SDS011;7383;52.354;9.756;2022-12-20T15:00:53;2.75;;;2.55;;
14592;SDS011;7383;52.354;9.756;2022-12-20T15:03:20;2.85;;;2.65;;
14592;SDS011;7383;52.354;9.756;2022-12-20T15:05:49;2.78;;;2.58;;
14592;SDS011;7383;52.354;9.756;2022-12-20T15:08:16;2.85;;;2.65;;
14592;SDS011;7383;52.354;9.756;2022-12-20T15:10:46;3.00;;;2.80;;
14592;SDS011;7383;52.354;9.756;2022-12-20T15:13:13;2.47;;;2.38;;
14592;SDS011;7383;52.354;9.756;2022-12-20T15:15:40;2.50;;;2.30;;
14592;SDS011;7383;52.354;9.756;2022-12-20T15:18:10;2.60;;;2.40;;
14592;SDS011;7383;52.354;9.756;2022-12-20T15:20:36;2.30;;;2.20;;
14592;SDS011;7383;52.354;9.756;2022-12-20T15:23:04;2.65;;;2.45;;
14592;SDS011;7383;52.354;9.756;2022-12-20T15:25:30;2.80;;;2.60;;
14592;SDS011;7383;52.354;9.756;2022-12-20T15:27:58;3.05;;;2.85;;
14592;SDS011;7383;52.354;9.756;2022-12-20T15:30:25;2.85;;;2.65;;
14592;SDS011;7383;52.354;9.756;2022-12-20T15:32:51;4.00;;;2.58;;
14592;SDS011;7383;52.354;9.756;2022-12-20T15:35:17;2.47;;;2.38;;
14592;SDS011;7383;52.354;9.756;2022-12-20T15:37:43;2.60;;;2.40;;
14592;SDS011;7383;52.354;9.756;2022-12-20T15:40:13;2.70;;;2.50;;
14592;SDS011;7383;52.354;9.756;2022-12-20T15:42:39;3.08;;;2.80;;
14592;SDS011;7383;52.354;9.756;2022-12-20T15:45:10;2.90;;;2.70;;
14592;SDS011;7383;52.354;9.756;2022-12-20T15:47:36;2.88;;;2.67;;
14592;SDS011;7383;52.354;9.756;2022-12-20T15:50:03;3.03;;;2.83;;
14592;SDS011;7383;52.354;9.756;2022-12-20T15:52:29;3.38;;;3.08;;